Time;durP1;ratioP1;P1;durP2;ratioP2;P2;SDS_P1;SDS_P2;PMS_P1;PMS_P2;Temp;Humidity;BMP_temperature;BMP_pressure;BME280_temperature;BME280_humidity;BME280_pressure;Samples;Min_cycle;Max_cycle;Signal;HPM_P1;HPM_P2
2022/08/07 00:00:54;;;;;;;8.38;6.40;;;28.10;54.30;;;;;;5047586;28;20029;-66
2022/08/07 00:03:21;;;;;;;6.40;5.75;;;28.10;54.30;;;;;;5049136;28;20575;-66
2022/08/07 00:05:49;;;;;;;10.38;5.75;;;28.10;54.50;;;;;;5052372;28;20044;-66
2022/08/07 00:08:15;;;;;;;6.97;5.60;;;28.10;54.50;;;;;;5059724;28;20032;-66
2022/08/07 00:10:41;;;;;;;10.75;6.25;;;28.20;54.50;;;;;;5060632;28;20037;-66
2022/08/07 00:13:07;;;;;;;6.53;5.85;;;28.10;54.60;;;;;;5049375;28;20044;-66
2022/08/07 00:15:34;;;;;;;6.22;4.72;;;28.10;54.60;;;;;;5065454;28;20057;-66
2022/08/07 00:18:00;;;;;;;6.32;5.10;;;28.10;54.60;;;;;;5045604;28;20445;-67
2022/08/07 00:20:26;;;;;;;7.28;5.78;;;28.10;54.60;;;;;;5059279;28;20069;-66
2022/08/07 00:22:52;;;;;;;7.47;5.63;;;28.10;54.70;;;;;;5074986;28;20039;-66
2022/08/07 00:25:18;;;;;;;6.47;5.43;;;28.00;54.70;;;;;;5071969;28;20595;-66
2022/08/07 00:27:44;;;;;;;6.32;4.88;;;28.10;54.70;;;;;;5058646;28;20519;-66
2022/08/07 00:30:11;;;;;;;8.68;5.15;;;28.10;54.70;;;;;;5055579;28;20037;-66
2022/08/07 00:32:37;;;;;;;7.82;6.40;;;28.10;54.70;;;;;;5054650;28;20037;-66
2022/08/07 00:35:04;;;;;;;6.78;6.07;;;28.10;54.70;;;;;;5050998;28;20561;-65
2022/08/07 00:37:30;;;;;;;9.52;6.07;;;28.10;54.70;;;;;;5034797;28;20196;-66
2022/08/07 00:39:56;;;;;;;6.72;5.63;;;28.20;54.70;;;;;;5051812;28;20417;-66
2022/08/07 00:42:22;;;;;;;7.30;5.72;;;28.20;54.70;;;;;;5032106;28;20124;-66
2022/08/07 00:44:48;;;;;;;8.13;5.68;;;28.10;54.70;;;;;;5053902;28;20045;-66
2022/08/07 00:47:14;;;;;;;7.90;6.35;;;28.10;54.70;;;;;;5071771;28;20060;-66
2022/08/07 00:49:40;;;;;;;10.93;6.55;;;28.10;54.60;;;;;;5048998;28;20033;-67
2022/08/07 00:52:07;;;;;;;9.32;6.82;;;28.00;54.70;;;;;;5041467;28;20094;-66
2022/08/07 00:54:33;;;;;;;7.07;6.38;;;28.20;54.70;;;;;;5053347;28;20137;-66
2022/08/07 00:57:00;;;;;;;7.20;5.65;;;28.00;54.70;;;;;;5051201;28;20160;-66
2022/08/07 00:59:26;;;;;;;9.20;5.90;;;28.00;54.70;;;;;;5051780;28;20033;-66
2022/08/07 01:01:53;;;;;;;7.03;5.60;;;28.00;54.80;;;;;;5053008;28;20519;-66
2022/08/07 01:04:19;;;;;;;8.23;6.45;;;28.00;54.80;;;;;;5050915;28;20033;-66
2022/08/07 01:06:45;;;;;;;7.68;6.00;;;28.00;54.80;;;;;;5054705;28;20029;-66
2022/08/07 01:09:11;;;;;;;7.40;6.50;;;27.90;54.40;;;;;;5066354;28;20045;-66
2022/08/07 01:11:39;;;;;;;7.60;6.05;;;28.00;54.90;;;;;;5057395;28;20029;-66
2022/08/07 01:14:06;;;;;;;8.27;5.82;;;28.00;54.90;;;;;;5063357;28;20040;-66
2022/08/07 01:16:32;;;;;;;8.75;5.65;;;28.00;54.90;;;;;;5058085;28;20025;-66
2022/08/07 01:18:59;;;;;;;10.85;6.43;;;28.10;54.90;;;;;;5050307;28;20064;-66
2022/08/07 01:21:25;;;;;;;10.63;6.38;;;28.00;54.90;;;;;;5058615;28;20033;-66
2022/08/07 01:23:56;;;;;;;6.28;5.40;;;28.10;55.00;;;;;;5085943;28;20512;-66
2022/08/07 01:26:23;;;;;;;7.90;6.80;;;28.00;55.00;;;;;;5066916;28;20083;-66
2022/08/07 01:28:50;;;;;;;8.38;5.95;;;28.00;55.00;;;;;;5054085;28;20041;-66
2022/08/07 01:31:26;;;;;;;6.57;5.63;;;28.00;55.00;;;;;;5060411;28;20385;-66
2022/08/07 01:33:55;;;;;;;9.00;6.70;;;28.00;55.00;;;;;;5053905;28;20146;-66
2022/08/07 01:36:23;;;;;;;7.80;6.32;;;28.10;55.00;;;;;;5066775;28;20124;-66
2022/08/07 01:38:50;;;;;;;8.65;6.10;;;28.00;55.00;;;;;;5059851;28;20036;-66
2022/08/07 01:41:22;;;;;;;7.60;6.78;;;28.20;55.00;;;;;;5047901;28;20056;-66
2022/08/07 01:43:49;;;;;;;7.82;6.53;;;28.10;55.00;;;;;;5080761;28;20066;-66
2022/08/07 01:46:16;;;;;;;10.35;6.20;;;28.00;54.80;;;;;;5064993;28;20063;-66
2022/08/07 01:48:46;;;;;;;9.35;6.32;;;28.00;54.80;;;;;;5061320;28;20044;-66
2022/08/07 01:51:21;;;;;;;7.57;6.80;;;28.00;54.80;;;;;;5052222;28;20033;-66
2022/08/07 01:53:52;;;;;;;8.63;6.70;;;28.00;54.90;;;;;;5057021;28;20085;-66
2022/08/07 01:56:26;;;;;;;10.35;5.93;;;28.00;54.90;;;;;;5064438;28;20036;-66
2022/08/07 01:58:58;;;;;;;9.18;6.63;;;28.10;55.00;;;;;;5050281;28;20033;-66
2022/08/07 02:01:28;;;;;;;10.05;6.85;;;27.90;54.50;;;;;;5066407;28;20039;-66
2022/08/07 02:04:07;;;;;;;10.35;6.50;;;28.00;55.10;;;;;;5047552;28;20037;-66
2022/08/07 02:06:37;;;;;;;8.05;5.75;;;28.00;55.10;;;;;;5048695;28;20032;-67
2022/08/07 02:09:09;;;;;;;12.70;7.47;;;28.00;55.10;;;;;;5062611;28;20079;-66
2022/08/07 02:11:40;;;;;;;8.35;6.85;;;28.00;55.10;;;;;;5051812;28;20453;-66
2022/08/07 02:14:10;;;;;;;6.63;5.53;;;28.00;55.20;;;;;;5050978;28;20065;-66
2022/08/07 02:16:38;;;;;;;9.00;6.57;;;27.90;54.70;;;;;;5058562;28;20028;-66
2022/08/07 02:19:08;;;;;;;8.20;6.72;;;28.00;55.20;;;;;;5054643;28;20430;-66
2022/08/07 02:21:37;;;;;;;8.00;6.30;;;28.00;55.20;;;;;;5061949;28;20028;-66
2022/08/07 02:24:05;;;;;;;6.70;6.03;;;28.00;55.20;;;;;;5067952;28;20040;-66
2022/08/07 02:26:34;;;;;;;7.68;6.88;;;28.00;55.10;;;;;;5066842;28;20052;-66
2022/08/07 02:29:07;;;;;;;7.63;6.30;;;27.90;54.70;;;;;;5050585;28;20056;-66
2022/08/07 02:31:35;;;;;;;8.45;6.60;;;27.90;54.70;;;;;;5056912;28;20163;-66
2022/08/07 02:34:04;;;;;;;9.13;6.03;;;28.10;55.20;;;;;;5051584;28;20048;-66
2022/08/07 02:36:31;;;;;;;13.27;6.50;;;27.90;54.70;;;;;;5071375;28;20041;-66
2022/08/07 02:39:03;;;;;;;8.32;5.82;;;28.10;55.20;;;;;;5068178;28;21049;-66
2022/08/07 02:41:30;;;;;;;9.82;5.97;;;28.00;55.20;;;;;;5055410;28;20377;-66
2022/08/07 02:44:00;;;;;;;7.72;5.93;;;27.90;54.60;;;;;;5058953;28;20060;-66
2022/08/07 02:46:28;;;;;;;7.57;5.53;;;28.00;55.20;;;;;;5050505;28;20044;-66
2022/08/07 02:48:56;;;;;;;12.05;6.70;;;28.00;55.10;;;;;;5034136;28;20116;-66
2022/08/07 02:51:26;;;;;;;8.80;6.72;;;28.00;55.10;;;;;;5052828;28;20028;-66
2022/08/07 02:53:54;;;;;;;6.50;5.63;;;28.00;55.10;;;;;;5070892;28;20075;-66
2022/08/07 02:56:24;;;;;;;6.85;5.70;;;28.00;55.10;;;;;;5055434;28;20044;-66
2022/08/07 02:58:53;;;;;;;9.77;6.93;;;27.90;54.50;;;;;;5042933;28;20037;-66
2022/08/07 03:01:22;;;;;;;6.85;6.10;;;27.90;54.60;;;;;;5059612;28;20028;-66
2022/08/07 03:03:51;;;;;;;9.82;6.60;;;27.80;54.70;;;;;;5043567;28;20433;-66
2022/08/07 03:06:23;;;;;;;9.07;7.47;;;28.00;55.30;;;;;;5044071;28;21777;-66
2022/08/07 03:08:50;;;;;;;7.80;6.25;;;27.90;54.80;;;;;;5050573;28;20068;-66
2022/08/07 03:11:17;;;;;;;8.55;6.53;;;28.00;55.30;;;;;;5064978;28;20123;-66
2022/08/07 03:13:43;;;;;;;10.20;7.43;;;27.90;54.70;;;;;;5051695;28;20152;-66
2022/08/07 03:16:10;;;;;;;8.85;6.82;;;27.90;54.70;;;;;;5081961;28;20048;-66
2022/08/07 03:18:37;;;;;;;8.85;6.45;;;27.90;54.70;;;;;;5055051;28;20037;-66
2022/08/07 03:21:06;;;;;;;8.48;6.35;;;27.80;54.80;;;;;;5042266;28;20102;-66
2022/08/07 03:23:33;;;;;;;6.55;5.95;;;27.90;54.80;;;;;;5048931;28;20036;-66
2022/08/07 03:26:02;;;;;;;9.90;7.30;;;28.00;55.30;;;;;;5069296;28;20123;-66
2022/08/07 03:28:34;;;;;;;8.23;6.72;;;28.00;55.30;;;;;;5047912;28;20118;-66
2022/08/07 03:31:19;;;;;;;6.50;5.85;;;27.90;54.70;;;;;;5056758;28;20041;-66
2022/08/07 03:33:54;;;;;;;8.70;6.38;;;27.90;54.70;;;;;;5052986;28;20029;-67
2022/08/07 03:36:24;;;;;;;9.57;6.47;;;28.00;55.30;;;;;;5049263;28;20458;-66
2022/08/07 03:38:54;;;;;;;8.98;7.00;;;27.90;54.80;;;;;;5067292;28;20041;-66
2022/08/07 03:41:20;;;;;;;9.55;6.95;;;27.90;54.70;;;;;;5068817;28;20028;-66
2022/08/07 03:43:48;;;;;;;9.55;6.82;;;28.00;55.30;;;;;;5067050;28;20076;-67
2022/08/07 03:46:15;;;;;;;8.07;6.63;;;28.00;55.20;;;;;;5067115;28;20048;-66
2022/08/07 03:48:41;;;;;;;11.70;6.82;;;27.90;54.70;;;;;;5046189;28;20095;-67
2022/08/07 03:51:09;;;;;;;8.02;5.95;;;28.00;55.30;;;;;;5065712;28;20098;-66
2022/08/07 03:53:39;;;;;;;10.88;7.07;;;27.90;54.70;;;;;;5072275;28;20055;-66
2022/08/07 03:56:08;;;;;;;9.15;6.65;;;27.80;54.80;;;;;;5073862;28;20507;-66
2022/08/07 03:58:37;;;;;;;9.48;6.20;;;27.90;54.90;;;;;;5054035;28;20040;-67
2022/08/07 04:01:07;;;;;;;8.80;6.75;;;27.90;54.90;;;;;;5060855;28;20032;-67
2022/08/07 04:03:35;;;;;;;9.10;6.50;;;28.00;55.50;;;;;;5060831;28;20357;-66
2022/08/07 04:06:02;;;;;;;12.68;7.45;;;28.00;55.50;;;;;;5067850;28;20036;-66
2022/08/07 04:08:28;;;;;;;9.02;6.75;;;27.90;55.00;;;;;;5082303;28;20485;-66
2022/08/07 04:10:56;;;;;;;9.10;7.15;;;27.90;55.00;;;;;;5059709;28;20048;-67
2022/08/07 04:13:23;;;;;;;13.82;7.70;;;27.90;54.90;;;;;;5073126;28;20035;-66
2022/08/07 04:15:50;;;;;;;7.70;6.57;;;27.90;55.00;;;;;;5059869;28;20163;-66
2022/08/07 04:18:18;;;;;;;10.07;7.43;;;27.90;55.00;;;;;;5064748;28;20637;-66
2022/08/07 04:20:46;;;;;;;8.88;5.82;;;28.00;55.50;;;;;;5057013;28;20185;-66
2022/08/07 04:23:13;;;;;;;8.57;6.18;;;28.00;55.50;;;;;;5069502;28;20029;-66
2022/08/07 04:25:41;;;;;;;12.07;7.50;;;28.00;55.50;;;;;;5073759;28;20056;-66
2022/08/07 04:28:11;;;;;;;8.90;7.43;;;27.90;54.90;;;;;;5049459;28;20098;-66
2022/08/07 04:30:38;;;;;;;9.48;7.30;;;28.00;55.40;;;;;;5054094;28;20044;-66
2022/08/07 04:33:10;;;;;;;;;;;27.90;54.90;;;;;;5044537;28;20088;-66
2022/08/07 04:35:40;;;;;;;8.85;5.97;;;28.00;55.40;;;;;;5064789;28;19913;-66
2022/08/07 04:38:12;;;;;;;8.40;6.97;;;28.00;55.30;;;;;;5053464;28;20047;-66
2022/08/07 04:40:43;;;;;;;7.00;6.18;;;27.80;54.80;;;;;;5027232;28;20040;-66
2022/08/07 04:43:11;;;;;;;6.40;5.47;;;27.90;54.80;;;;;;5006048;28;20389;-66
2022/08/07 04:45:59;;;;;;;9.88;7.30;;;27.90;54.80;;;;;;5021879;28;20106;-67
2022/08/07 04:48:51;;;;;;;8.45;6.80;;;27.90;54.90;;;;;;5070391;28;20037;-67
2022/08/07 04:51:27;;;;;;;10.45;6.55;;;28.00;55.50;;;;;;5059787;28;20037;-67
2022/08/07 04:54:02;;;;;;;9.65;7.28;;;27.80;55.00;;;;;;5047663;28;20697;-67
2022/08/07 04:56:43;;;;;;;9.93;7.72;;;27.90;55.10;;;;;;5055217;28;20102;-67
2022/08/07 04:59:20;;;;;;;9.50;7.30;;;27.90;55.10;;;;;;5055228;28;20056;-67
2022/08/07 05:01:48;;;;;;;8.57;5.53;;;28.00;55.60;;;;;;5054421;28;20440;-66
2022/08/07 05:04:20;;;;;;;9.70;5.95;;;27.90;55.10;;;;;;5041725;28;20103;-67
2022/08/07 05:07:10;;;;;;;3.53;2.95;;;27.90;55.00;;;;;;5059553;28;20575;-69
2022/08/07 05:10:11;;;;;;;8.65;4.07;;;28.00;56.40;;;;;;5083558;28;20096;-70
2022/08/07 05:12:53;;;;;;;4.07;3.30;;;27.90;55.00;;;;;;5052309;28;20037;-69
2022/08/07 05:15:35;;;;;;;6.05;4.22;;;28.00;55.50;;;;;;5051962;28;20112;-68
2022/08/07 05:18:04;;;;;;;;;;;27.90;55.30;;;;;;5042895;28;20496;-69
2022/08/07 05:20:36;;;;;;;4.40;2.58;;;28.00;55.70;;;;;;5053313;28;19908;-68
2022/08/07 05:23:11;;;;;;;;;;;28.00;56.30;;;;;;5053125;28;20043;-68
2022/08/07 05:25:41;;;;;;;6.78;4.30;;;28.00;56.70;;;;;;5084823;28;19908;-69
2022/08/07 05:28:08;;;;;;;9.20;5.50;;;28.10;55.70;;;;;;5050523;28;20024;-68
2022/08/07 05:30:36;;;;;;;6.97;5.20;;;28.10;55.30;;;;;;5051658;28;20025;-68
2022/08/07 05:33:04;;;;;;;8.10;6.80;;;27.90;54.60;;;;;;5050037;28;20037;-68
2022/08/07 05:35:33;;;;;;;9.15;7.03;;;28.00;55.70;;;;;;5052122;28;20086;-68
2022/08/07 05:38:01;;;;;;;9.15;8.05;;;27.90;55.30;;;;;;5052620;28;20381;-68
2022/08/07 05:40:28;;;;;;;17.00;7.55;;;28.00;55.90;;;;;;5040031;28;20029;-68
2022/08/07 05:42:54;;;;;;;11.82;7.55;;;28.10;55.70;;;;;;5048624;28;20033;-67
2022/08/07 05:45:21;;;;;;;12.88;7.30;;;27.90;55.20;;;;;;5052034;28;20107;-68
2022/08/07 05:47:47;;;;;;;11.05;7.30;;;27.90;55.30;;;;;;5045247;28;20040;-68
2022/08/07 05:50:14;;;;;;;11.73;7.85;;;27.90;55.10;;;;;;5051706;28;20017;-68
2022/08/07 05:52:40;;;;;;;10.70;8.00;;;28.00;55.90;;;;;;5059287;28;20048;-68
2022/08/07 05:55:07;;;;;;;10.55;7.35;;;27.80;55.40;;;;;;5040444;28;20033;-67
2022/08/07 05:57:36;;;;;;;10.18;8.70;;;27.90;55.10;;;;;;5031235;28;20103;-68
2022/08/07 06:00:04;;;;;;;10.95;7.55;;;27.90;55.20;;;;;;5031991;28;20029;-67
2022/08/07 06:02:50;;;;;;;4.25;2.22;;;27.90;57.40;;;;;;5048360;28;20439;-69
2022/08/07 06:05:21;;;;;;;7.85;5.72;;;28.00;57.80;;;;;;5033602;28;20128;-70
2022/08/07 06:07:51;;;;;;;8.20;2.85;;;28.10;58.10;;;;;;5032562;28;20060;-69
2022/08/07 06:10:17;;;;;;;3.13;2.50;;;28.00;58.40;;;;;;5065951;28;20061;-69
2022/08/07 06:12:46;;;;;;;2.97;2.65;;;28.00;56.80;;;;;;5044528;28;20034;-70
2022/08/07 06:15:15;;;;;;;1.67;1.58;;;28.10;56.40;;;;;;5053190;28;20068;-68
2022/08/07 06:17:42;;;;;;;3.92;3.22;;;28.10;56.40;;;;;;5048600;28;20094;-68
2022/08/07 06:20:29;;;;;;;9.52;7.88;;;28.10;56.30;;;;;;5056225;28;20041;-71
2022/08/07 06:23:00;;;;;;;13.48;7.90;;;28.00;56.20;;;;;;5033914;28;20047;-70
2022/08/07 06:25:34;;;;;;;9.38;6.22;;;28.10;56.90;;;;;;5033861;28;20041;-70
2022/08/07 06:28:08;;;;;;;10.55;8.43;;;28.10;56.50;;;;;;5039011;28;20049;-69
2022/08/07 06:30:35;;;;;;;11.95;9.02;;;28.10;56.30;;;;;;5049824;28;20049;-70
2022/08/07 06:33:04;;;;;;;8.55;5.72;;;28.00;56.00;;;;;;5053410;28;20051;-70
2022/08/07 06:35:30;;;;;;;10.82;8.35;;;28.10;56.00;;;;;;5053904;28;20520;-69
2022/08/07 06:37:57;;;;;;;13.63;7.97;;;28.10;56.00;;;;;;5032787;28;20485;-70
2022/08/07 06:40:24;;;;;;;18.80;8.55;;;28.10;56.30;;;;;;5052050;28;20444;-69
2022/08/07 06:42:52;;;;;;;10.82;7.95;;;28.00;56.60;;;;;;5053291;28;20040;-70
2022/08/07 06:45:36;;;;;;;10.70;7.40;;;28.00;56.80;;;;;;5052132;28;20398;-70
2022/08/07 06:48:05;;;;;;;15.05;9.15;;;27.90;56.60;;;;;;5048696;28;20041;-70
2022/08/07 06:50:44;;;;;;;15.82;8.77;;;27.90;56.50;;;;;;5055578;28;20044;-70
2022/08/07 06:53:13;;;;;;;14.45;8.43;;;27.90;56.50;;;;;;5049827;28;20410;-70
2022/08/07 06:55:42;;;;;;;11.25;9.50;;;28.00;56.80;;;;;;5033845;28;20121;-69
2022/08/07 06:58:11;;;;;;;11.63;7.72;;;27.90;56.80;;;;;;5033795;28;20156;-70
2022/08/07 07:00:56;;;;;;;20.52;9.20;;;28.00;57.40;;;;;;5022805;28;20077;-71
2022/08/07 07:03:23;;;;;;;8.57;7.43;;;27.90;57.00;;;;;;5034163;28;20101;-70
2022/08/07 07:05:50;;;;;;;10.32;8.27;;;28.00;57.30;;;;;;5031661;28;20025;-70
2022/08/07 07:08:16;;;;;;;12.45;8.50;;;28.00;57.40;;;;;;5032343;28;20474;-70
2022/08/07 07:10:42;;;;;;;13.80;8.65;;;27.90;56.90;;;;;;5050424;28;20065;-71
2022/08/07 07:13:20;;;;;;;12.73;8.73;;;28.20;57.40;;;;;;5052542;28;20045;-71
2022/08/07 07:15:53;;;;;;;12.90;7.93;;;28.00;57.30;;;;;;5052785;28;20037;-71
2022/08/07 07:18:42;;;;;;;9.75;6.10;;;28.00;57.50;;;;;;5041748;28;20028;-71
2022/08/07 07:21:16;;;;;;;11.77;8.02;;;28.20;57.50;;;;;;5035336;28;20103;-70
2022/08/07 07:23:43;;;;;;;5.68;4.75;;;28.10;57.40;;;;;;5030153;28;20045;-70
2022/08/07 07:26:14;;;;;;;11.85;7.13;;;28.20;57.50;;;;;;5035227;28;20114;-69
2022/08/07 07:28:47;;;;;;;11.57;8.60;;;28.10;57.20;;;;;;5051728;28;20041;-70
2022/08/07 07:31:18;;;;;;;;;;;28.00;57.00;;;;;;5052759;28;20033;-70
2022/08/07 07:33:47;;;;;;;12.77;6.25;;;28.00;57.10;;;;;;5049353;28;20012;-70
2022/08/07 07:36:13;;;;;;;15.55;7.90;;;28.00;58.20;;;;;;5031761;28;20040;-69
2022/08/07 07:38:41;;;;;;;8.65;5.65;;;28.10;58.90;;;;;;5029314;28;20037;-67
2022/08/07 07:41:11;;;;;;;9.77;5.32;;;28.10;60.20;;;;;;5032129;28;20072;-67
2022/08/07 07:43:42;;;;;;;11.23;8.93;;;28.10;59.60;;;;;;5035168;28;20829;-66
2022/08/07 07:46:09;;;;;;;11.95;8.82;;;28.00;59.10;;;;;;5026963;28;20053;-67
2022/08/07 07:48:36;;;;;;;10.82;8.90;;;28.20;58.70;;;;;;5044122;28;20037;-66
2022/08/07 07:51:04;;;;;;;13.85;9.05;;;28.10;58.50;;;;;;5046464;28;20052;-66
2022/08/07 07:53:33;;;;;;;10.77;9.05;;;28.20;58.40;;;;;;5031771;28;20044;-67
2022/08/07 07:56:00;;;;;;;13.93;9.65;;;28.10;58.10;;;;;;5046807;28;20371;-66
2022/08/07 07:58:29;;;;;;;11.75;8.50;;;28.10;58.00;;;;;;5030947;28;20060;-67
2022/08/07 08:00:57;;;;;;;11.57;7.72;;;28.10;58.00;;;;;;5032535;28;20037;-67
2022/08/07 08:03:23;;;;;;;14.57;9.18;;;28.20;57.60;;;;;;5046958;28;20029;-67
2022/08/07 08:05:50;;;;;;;8.57;7.18;;;28.10;57.50;;;;;;5050621;28;20112;-67
2022/08/07 08:08:16;;;;;;;9.50;7.63;;;28.30;57.60;;;;;;5048661;28;21802;-65
2022/08/07 08:10:44;;;;;;;8.10;6.85;;;28.20;57.30;;;;;;5081918;28;20056;-67
2022/08/07 08:13:12;;;;;;;9.00;7.07;;;28.30;56.90;;;;;;5050793;28;20033;-67
2022/08/07 08:15:39;;;;;;;9.23;7.60;;;28.20;56.80;;;;;;5044818;28;20036;-67
2022/08/07 08:18:09;;;;;;;7.68;6.25;;;28.20;56.80;;;;;;5030818;28;20056;-66
2022/08/07 08:20:39;;;;;;;8.30;7.15;;;28.10;56.80;;;;;;5031014;28;20049;-67
2022/08/07 08:28:41;;;;;;;8.95;6.50;;;28.10;56.80;;;;;;5047398;28;20069;-66
2022/08/07 08:31:09;;;;;;;9.55;6.30;;;28.30;56.80;;;;;;5046140;28;20037;-67
2022/08/07 08:33:38;;;;;;;10.75;6.03;;;28.20;56.70;;;;;;5043809;28;20124;-67
2022/08/07 08:36:06;;;;;;;11.65;7.05;;;28.10;56.70;;;;;;5027597;28;20081;-66
2022/08/07 08:38:37;;;;;;;8.50;6.80;;;28.30;56.60;;;;;;5039772;28;20047;-67
2022/08/07 08:41:06;;;;;;;7.65;6.50;;;28.20;56.60;;;;;;5049081;28;20088;-67
2022/08/07 08:43:45;;;;;;;9.73;6.95;;;28.20;56.70;;;;;;5040863;28;20120;-66
2022/08/07 08:46:19;;;;;;;7.95;6.72;;;28.30;56.40;;;;;;5035876;28;20037;-67
2022/08/07 08:48:58;;;;;;;11.30;6.82;;;28.40;56.50;;;;;;5050965;28;20033;-67
2022/08/07 08:51:34;;;;;;;6.78;5.88;;;28.30;56.50;;;;;;5051348;28;20086;-66
2022/08/07 08:54:17;;;;;;;11.95;6.18;;;28.30;56.40;;;;;;5050984;28;20552;-66
2022/08/07 08:56:47;;;;;;;6.80;5.95;;;28.30;56.50;;;;;;5049376;28;20370;-66
2022/08/07 08:59:34;;;;;;;7.85;6.60;;;28.40;56.30;;;;;;5050723;28;20041;-67
2022/08/07 09:02:38;;;;;;;8.13;6.35;;;28.30;56.40;;;;;;5048557;28;20044;-65
2022/08/07 09:05:03;;;;;;;;;;;28.30;56.20;;;;;;5067832;28;20128;-67
2022/08/07 09:07:50;;;;;;;7.60;6.10;;;28.30;56.00;;;;;;5054065;28;20302;-67
2022/08/07 09:10:23;;;;;;;10.57;7.40;;;28.30;55.90;;;;;;5052913;28;20077;-66
2022/08/07 09:13:12;;;;;;;8.93;6.88;;;28.40;55.70;;;;;;5051092;28;20501;-66
2022/08/07 09:15:57;;;;;;;10.18;6.88;;;28.30;55.50;;;;;;5053131;28;20529;-67
2022/08/07 09:18:41;;;;;;;9.43;7.13;;;28.30;55.60;;;;;;5050462;28;20079;-67
2022/08/07 09:21:35;;;;;;;7.60;6.15;;;28.30;55.50;;;;;;5053400;28;20392;-67
2022/08/07 09:24:05;;;;;;;16.10;7.75;;;28.20;55.60;;;;;;5051129;28;20037;-67
2022/08/07 09:26:56;;;;;;;9.18;7.32;;;28.30;55.80;;;;;;5053106;28;20043;-67
2022/08/07 09:29:51;;;;;;;10.65;6.93;;;28.20;55.80;;;;;;5052171;28;20029;-67
2022/08/07 09:32:41;;;;;;;7.30;6.03;;;28.20;55.60;;;;;;5041091;28;20484;-66
2022/08/07 09:35:39;;;;;;;10.25;6.63;;;28.30;56.10;;;;;;5031003;28;20458;-67
2022/08/07 09:38:10;;;;;;;9.38;5.97;;;28.20;56.10;;;;;;5030789;28;20033;-67
2022/08/07 09:41:14;;;;;;;8.73;7.20;;;28.30;56.20;;;;;;5030364;28;20049;-67
2022/08/07 09:44:04;;;;;;;9.15;6.35;;;28.30;56.10;;;;;;5051112;28;20489;-66
2022/08/07 09:47:07;;;;;;;10.60;7.60;;;28.30;56.10;;;;;;5048991;28;20564;-66
2022/08/07 09:49:52;;;;;;;8.10;6.53;;;28.30;56.00;;;;;;5049828;28;20483;-67
2022/08/07 09:52:30;;;;;;;8.05;6.93;;;28.20;56.10;;;;;;5048929;28;20084;-66
2022/08/07 09:55:07;;;;;;;10.90;7.53;;;28.20;56.00;;;;;;5049749;28;20052;-68
2022/08/07 09:58:03;;;;;;;8.25;7.30;;;28.30;56.10;;;;;;5048594;28;20061;-67
2022/08/07 10:00:59;;;;;;;8.13;6.57;;;28.20;56.10;;;;;;5048072;28;20110;-69
2022/08/07 10:03:49;;;;;;;8.98;6.43;;;28.20;56.00;;;;;;5047688;28;20142;-67
2022/08/07 10:06:42;;;;;;;10.43;5.35;;;28.20;56.20;;;;;;5052869;28;20094;-67
2022/08/07 10:09:30;;;;;;;5.75;4.70;;;28.40;58.30;;;;;;5052754;28;20120;-67
2022/08/07 10:12:02;;;;;;;11.63;7.05;;;28.40;60.00;;;;;;5047152;28;20166;-67
2022/08/07 10:14:54;;;;;;;14.05;3.58;;;28.60;61.80;;;;;;5050686;28;20063;-68
2022/08/07 10:17:45;;;;;;;4.38;3.97;;;28.70;64.10;;;;;;5051976;28;20052;-67
2022/08/07 10:20:49;;;;;;;12.05;5.55;;;28.90;64.20;;;;;;5051541;28;20033;-66
2022/08/07 10:23:52;;;;;;;12.20;5.70;;;28.80;63.40;;;;;;5030117;28;20030;-68
2022/08/07 10:26:53;;;;;;;10.73;6.43;;;28.90;61.50;;;;;;5030067;28;20129;-68
2022/08/07 10:29:38;;;;;;;12.93;6.10;;;29.00;59.40;;;;;;4990907;28;20597;-68
2022/08/07 10:32:26;;;;;;;10.30;5.35;;;28.90;57.80;;;;;;4989629;28;20050;-69
2022/08/07 10:35:29;;;;;;;7.30;4.80;;;29.00;58.60;;;;;;5006257;28;20057;-69
2022/08/07 10:38:23;;;;;;;10.80;5.53;;;29.00;57.90;;;;;;4979346;28;20436;-68
2022/08/07 10:41:06;;;;;;;8.77;5.47;;;29.10;57.20;;;;;;4988265;28;20053;-66
2022/08/07 10:43:42;;;;;;;9.13;5.38;;;28.80;57.30;;;;;;4983198;28;20094;-69
2022/08/07 10:46:16;;;;;;;5.57;4.93;;;29.00;58.60;;;;;;4959815;28;20043;-66
2022/08/07 10:49:01;;;;;;;4.63;3.67;;;29.20;59.20;;;;;;4968993;28;20126;-68
2022/08/07 10:51:29;;;;;;;7.07;5.32;;;29.20;59.90;;;;;;4968308;28;20050;-67
2022/08/07 10:54:07;;;;;;;5.18;4.43;;;29.40;60.60;;;;;;4966998;28;20050;-68
2022/08/07 10:56:54;;;;;;;5.68;4.57;;;29.50;57.90;;;;;;4969892;28;20526;-67
2022/08/07 10:59:35;;;;;;;8.32;4.82;;;29.40;57.40;;;;;;4996298;28;20038;-66
2022/08/07 11:02:20;;;;;;;5.03;4.07;;;29.30;57.30;;;;;;4978830;28;20035;-67
2022/08/07 11:05:17;;;;;;;6.38;4.20;;;29.40;57.30;;;;;;5038901;28;20033;-66
2022/08/07 11:08:11;;;;;;;5.05;3.22;;;29.30;57.10;;;;;;5048772;28;20582;-66
2022/08/07 11:11:06;;;;;;;3.75;3.15;;;29.20;57.20;;;;;;5048316;28;20141;-66
2022/08/07 11:13:37;;;;;;;4.97;3.60;;;29.20;56.60;;;;;;5032045;28;20041;-63
2022/08/07 11:16:14;;;;;;;5.57;3.45;;;29.10;55.40;;;;;;5048801;28;20045;-65
2022/08/07 11:18:50;;;;;;;8.93;3.03;;;29.10;54.50;;;;;;5065804;28;20490;-65
2022/08/07 11:21:34;;;;;;;5.40;3.13;;;29.00;53.90;;;;;;5055722;28;20028;-66
2022/08/07 11:24:13;;;;;;;7.22;3.10;;;28.90;52.50;;;;;;5071344;28;20489;-64
2022/08/07 11:26:52;;;;;;;3.35;3.03;;;29.00;52.70;;;;;;5060731;28;20029;-65
2022/08/07 11:29:35;;;;;;;4.75;3.72;;;28.80;52.00;;;;;;5051288;28;20079;-66
2022/08/07 11:32:10;;;;;;;7.97;3.13;;;28.80;51.70;;;;;;5051330;28;20479;-65
2022/08/07 11:34:57;;;;;;;3.38;3.08;;;28.80;52.40;;;;;;5049726;28;20065;-65
2022/08/07 11:37:42;;;;;;;6.00;3.45;;;28.80;52.20;;;;;;5051218;28;20351;-65
2022/08/07 11:40:27;;;;;;;7.45;3.22;;;28.80;51.70;;;;;;5080361;28;20029;-65
2022/08/07 11:43:03;;;;;;;3.53;3.08;;;28.80;51.10;;;;;;5049861;28;20033;-66
2022/08/07 11:45:38;;;;;;;5.30;3.22;;;28.80;50.90;;;;;;5065775;28;20056;-65
2022/08/07 11:48:19;;;;;;;3.38;3.08;;;28.80;50.80;;;;;;5050304;28;20045;-67
2022/08/07 11:51:03;;;;;;;4.35;3.40;;;28.80;50.20;;;;;;5064777;28;20049;-65
2022/08/07 11:54:15;;;;;;;5.78;4.70;;;28.70;50.40;;;;;;5050418;28;20048;-65
2022/08/07 11:56:57;;;;;;;4.30;3.45;;;28.70;51.40;;;;;;5027711;28;20529;-66
2022/08/07 11:59:39;;;;;;;6.22;3.97;;;28.80;52.60;;;;;;5027632;28;20053;-65
2022/08/07 12:02:23;;;;;;;6.57;4.45;;;28.80;51.60;;;;;;5027124;28;20035;-65
2022/08/07 12:05:06;;;;;;;4.47;3.92;;;28.80;51.20;;;;;;5027478;28;20049;-66
2022/08/07 12:07:55;;;;;;;4.00;3.65;;;28.80;51.40;;;;;;5027307;28;20462;-66
2022/08/07 12:10:39;;;;;;;4.85;3.80;;;28.70;51.60;;;;;;5027510;28;20091;-65
2022/08/07 12:13:13;;;;;;;4.57;3.17;;;28.80;51.50;;;;;;5028927;28;20506;-66
2022/08/07 12:15:50;;;;;;;4.00;3.60;;;28.80;51.40;;;;;;5015200;28;20087;-65
2022/08/07 12:18:44;;;;;;;6.57;4.18;;;28.90;51.40;;;;;;5032179;28;20089;-65
2022/08/07 12:21:13;;;;;;;4.70;4.30;;;28.80;51.80;;;;;;5032210;28;20034;-65
2022/08/07 12:24:08;;;;;;;5.03;4.13;;;28.80;54.90;;;;;;5032346;28;20091;-66
2022/08/07 12:26:41;;;;;;;9.60;3.53;;;28.90;56.30;;;;;;5014941;28;20121;-66
2022/08/07 12:29:17;;;;;;;4.68;3.65;;;28.90;56.40;;;;;;5030045;28;20034;-67
2022/08/07 12:31:54;;;;;;;7.90;3.65;;;28.90;54.00;;;;;;5027274;28;20561;-66
2022/08/07 12:34:22;;;;;;;3.88;3.58;;;29.00;52.50;;;;;;5054314;28;20029;-65
2022/08/07 12:36:51;;;;;;;8.65;4.82;;;28.80;50.10;;;;;;5052701;28;20152;-66
2022/08/07 12:39:19;;;;;;;4.88;4.00;;;28.80;49.00;;;;;;5054825;28;20035;-65
2022/08/07 12:41:46;;;;;;;4.20;3.63;;;28.80;48.40;;;;;;5054670;28;20033;-66
2022/08/07 12:44:13;;;;;;;3.85;3.50;;;28.80;47.90;;;;;;5054591;28;20033;-67
2022/08/07 12:47:01;;;;;;;5.50;3.70;;;28.90;47.60;;;;;;5054240;28;20099;-65
2022/08/07 12:49:47;;;;;;;5.00;4.05;;;28.90;47.10;;;;;;5054611;28;20040;-65
2022/08/07 12:52:17;;;;;;;9.77;3.53;;;28.80;46.50;;;;;;5053994;28;20112;-66
2022/08/07 12:55:29;;;;;;;7.28;3.88;;;28.90;46.30;;;;;;5054147;28;20611;-65
2022/08/07 12:57:58;;;;;;;5.03;3.00;;;29.00;46.50;;;;;;5031576;28;20078;-65
2022/08/07 13:00:50;;;;;;;6.22;3.50;;;29.10;45.90;;;;;;5031570;28;20053;-65
2022/08/07 13:03:25;;;;;;;3.80;3.42;;;28.90;45.20;;;;;;5031596;28;20053;-65
2022/08/07 13:06:14;;;;;;;5.55;4.05;;;28.80;45.00;;;;;;5048153;28;20640;-64
2022/08/07 13:08:56;;;;;;;6.00;3.55;;;29.00;45.10;;;;;;5030890;28;20049;-65
2022/08/07 13:11:29;;;;;;;5.05;3.17;;;29.00;44.90;;;;;;5031543;28;20124;-65
2022/08/07 13:14:32;;;;;;;3.05;2.80;;;29.00;44.70;;;;;;5025691;28;20034;-64
2022/08/07 13:17:38;;;;;;;2.78;2.58;;;28.90;43.90;;;;;;5011277;28;20065;-64
2022/08/07 13:20:14;;;;;;;4.43;2.70;;;29.00;44.00;;;;;;4952822;28;20448;-65
2022/08/07 13:22:50;;;;;;;6.47;3.13;;;28.90;43.50;;;;;;4920898;29;20059;-64
2022/08/07 13:25:30;;;;;;;6.10;3.00;;;29.00;43.80;;;;;;4935355;29;20178;-68
2022/08/07 13:28:09;;;;;;;4.53;2.85;;;29.00;43.60;;;;;;4952826;28;20134;-64